Ages Brookside, Kentucky
Current Conditions -  °F | °C
As of 9:35 AM on Thursday 30 Oct 2014 (Local Time) from KI35 Reporting Station
Overcast Overcast  
Wind Chill: 36°   Ceiling: 100
Heat Index: 36°   Visibility: 0mi
Dew Point: 36°   Wind: 0mph
Humidity: 100%   Direction: NA
Pressure: 30.14"   Gusts: NA
Location:  36.86°N, 83.25°W
Report Text: KI35 301335Z AUTO 00000KT M1/4SM OVC001 02/02 A3014 RMK AO1
Loading
Personal Weather Stations






























Interactive Weather Map
Tropical Storm Tracking
New forecast layout! Learn more

10-Day Weather Forecast

Advertisements
Track Severe Weather on mobile